Time;durP1;ratioP1;P1;durP2;ratioP2;P2;SDS_P1;SDS_P2;PMS_P1;PMS_P2;Temp;Humidity;BMP_temperature;BMP_pressure;BME280_temperature;BME280_humidity;BME280_pressure;Samples;Min_cycle;Max_cycle;Signal;HPM_P1;HPM_P2
2023/10/18 18:31:27;;;;;;;23.13;13.80;;;;;;;9.32;100.00;92703.09;5023312;27;1322730;-62
2023/10/18 18:33:53;;;;;;;20.35;12.35;;;;;;;9.39;100.00;92702.88;5066272;28;20049;-61
2023/10/18 18:36:21;;;;;;;19.40;12.80;;;;;;;9.36;100.00;92699.03;5066770;28;20623;-66
2023/10/18 18:38:47;;;;;;;16.77;10.93;;;;;;;9.42;100.00;92702.00;5062356;28;20051;-61
2023/10/18 18:41:14;;;;;;;17.00;11.10;;;;;;;9.40;100.00;92683.28;5065048;28;20049;-60
2023/10/18 18:43:41;;;;;;;13.50;7.85;;;;;;;9.33;100.00;92702.66;5070745;28;20689;-61
2023/10/18 18:46:12;;;;;;;12.30;7.55;;;;;;;9.38;100.00;92687.66;5063136;28;20055;-64
2023/10/18 18:48:53;;;;;;;13.90;8.23;;;;;;;9.44;100.00;92694.13;5060074;28;20051;-63
2023/10/18 18:51:20;;;;;;;16.60;9.73;;;;;;;9.46;100.00;92678.03;5061434;28;20044;-60
2023/10/18 18:53:46;;;;;;;14.40;8.70;;;;;;;9.53;100.00;92691.47;5077035;28;20040;-63
2023/10/18 18:56:13;;;;;;;15.90;10.15;;;;;;;9.56;100.00;92684.38;5082609;28;20044;-59
2023/10/18 18:58:40;;;;;;;20.13;12.07;;;;;;;9.37;100.00;92684.13;5081142;28;20184;-64
2023/10/18 19:01:07;;;;;;;18.27;12.40;;;;;;;9.20;100.00;92688.97;5082009;28;20044;-64
2023/10/18 19:03:35;;;;;;;21.85;12.98;;;;;;;9.04;100.00;92685.56;5081219;28;20051;-63
2023/10/18 19:06:03;;;;;;;22.07;13.97;;;;;;;9.12;100.00;92689.63;5083450;28;20046;-67
2023/10/18 19:08:30;;;;;;;23.40;14.48;;;;;;;9.15;100.00;92680.50;5082615;28;20056;-68
2023/10/18 19:10:57;;;;;;;25.92;15.95;;;;;;;9.10;100.00;92681.84;5083362;28;20040;-61
2023/10/18 19:13:23;;;;;;;23.45;13.55;;;;;;;8.94;100.00;92684.66;5079950;28;20044;-60
2023/10/18 19:16:01;;;;;;;21.33;13.50;;;;;;;8.86;100.00;92681.34;5079305;28;20055;-60
2023/10/18 19:18:28;;;;;;;27.97;15.60;;;;;;;8.96;100.00;92688.47;5076084;28;20047;-59
2023/10/18 19:21:05;;;;;;;23.70;14.32;;;;;;;8.97;100.00;92686.50;5076024;28;20089;-59
2023/10/18 19:23:31;;;;;;;25.95;14.45;;;;;;;8.90;100.00;92695.69;5075747;28;20071;-61
2023/10/18 19:25:58;;;;;;;23.48;14.65;;;;;;;8.90;100.00;92689.47;5077216;28;20040;-60
2023/10/18 19:28:26;;;;;;;25.27;14.32;;;;;;;8.82;100.00;92688.91;5075197;28;20669;-59
2023/10/18 19:30:53;;;;;;;23.67;14.37;;;;;;;8.91;100.00;92701.94;5062379;28;20045;-60
2023/10/18 19:33:20;;;;;;;22.58;13.63;;;;;;;8.99;100.00;92693.09;5072432;28;20125;-60
2023/10/18 19:35:48;;;;;;;21.63;13.55;;;;;;;8.98;100.00;92704.47;5063965;28;20507;-62
2023/10/18 19:38:15;;;;;;;24.08;13.82;;;;;;;8.95;100.00;92689.69;5071491;28;20037;-62
2023/10/18 19:40:42;;;;;;;24.17;12.73;;;;;;;8.92;100.00;92696.03;5074694;28;20498;-60
2023/10/18 19:43:10;;;;;;;23.53;13.47;;;;;;;8.97;100.00;92705.66;5061980;28;20106;-59
2023/10/18 19:45:37;;;;;;;22.27;12.82;;;;;;;8.98;100.00;92702.50;5062703;28;20040;-60
2023/10/18 19:48:04;;;;;;;24.42;13.88;;;;;;;9.11;100.00;92696.28;5061865;28;20043;-62
2023/10/18 19:50:31;;;;;;;20.88;12.50;;;;;;;9.08;100.00;92695.19;5051333;28;20102;-62
2023/10/18 19:52:58;;;;;;;21.23;12.80;;;;;;;9.10;100.00;92684.56;5043105;28;20138;-59
2023/10/18 19:55:25;;;;;;;21.23;12.47;;;;;;;9.02;100.00;92698.91;5059544;28;20083;-61
2023/10/18 19:57:52;;;;;;;19.33;11.93;;;;;;;9.11;100.00;92685.31;5062800;28;20043;-63
2023/10/18 20:00:19;;;;;;;22.25;13.77;;;;;;;8.95;100.00;92689.69;5052080;28;20056;-60
2023/10/18 20:02:45;;;;;;;21.92;13.30;;;;;;;9.07;100.00;92693.63;5047630;28;20049;-63
2023/10/18 20:05:14;;;;;;;23.40;12.68;;;;;;;9.03;100.00;92686.75;5047547;28;20098;-61
2023/10/18 20:07:41;;;;;;;21.17;12.43;;;;;;;9.06;100.00;92685.88;5060873;28;20203;-61
2023/10/18 20:10:09;;;;;;;21.13;12.70;;;;;;;9.09;100.00;92691.22;5061531;28;20078;-61
2023/10/18 20:12:36;;;;;;;23.00;12.77;;;;;;;9.10;100.00;92690.03;5061667;28;20048;-64
2023/10/18 20:15:05;;;;;;;23.65;14.00;;;;;;;8.94;100.00;92684.66;5061068;28;20094;-65
2023/10/18 20:17:32;;;;;;;22.98;13.48;;;;;;;8.97;100.00;92679.09;5061462;28;20152;-60
2023/10/18 20:19:59;;;;;;;24.47;13.93;;;;;;;9.08;100.00;92669.78;5061659;28;20044;-64
2023/10/18 20:22:26;;;;;;;24.58;14.13;;;;;;;9.02;100.00;92677.00;5060948;28;20036;-63
2023/10/18 20:24:53;;;;;;;23.80;13.98;;;;;;;9.11;100.00;92669.66;5061576;28;20071;-61
2023/10/18 20:27:20;;;;;;;22.15;12.27;;;;;;;8.77;100.00;92671.06;5060409;28;20052;-60
2023/10/18 20:29:47;;;;;;;22.63;13.55;;;;;;;8.69;100.00;92669.72;5061198;28;20056;-58
2023/10/18 20:32:13;;;;;;;25.70;15.37;;;;;;;8.74;100.00;92671.16;5061035;28;20058;-61
2023/10/18 20:34:40;;;;;;;24.80;14.52;;;;;;;8.83;100.00;92660.31;5061995;28;20047;-62
2023/10/18 20:37:07;;;;;;;24.73;14.90;;;;;;;8.95;100.00;92661.56;5062184;28;20044;-60
2023/10/18 20:39:34;;;;;;;36.20;17.52;;;;;;;8.74;100.00;92660.97;5061615;28;20521;-62
2023/10/18 20:42:18;;;;;;;28.98;17.10;;;;;;;8.75;100.00;92661.72;5061433;28;20053;-63
2023/10/18 20:44:48;;;;;;;28.70;16.17;;;;;;;8.90;100.00;92662.09;5077045;28;20051;-61
2023/10/18 20:47:16;;;;;;;26.35;15.70;;;;;;;8.97;100.00;92654.47;5061830;28;20059;-59
2023/10/18 20:49:49;;;;;;;28.17;16.25;;;;;;;8.83;100.00;92646.66;5049459;28;20037;-59
2023/10/18 20:52:16;;;;;;;28.67;15.38;;;;;;;8.69;100.00;92630.66;5042862;28;20041;-60
2023/10/18 20:54:45;;;;;;;28.58;16.92;;;;;;;8.79;100.00;92644.03;5045466;28;20049;-60
2023/10/18 20:57:16;;;;;;;32.20;18.00;;;;;;;8.89;100.00;92638.66;5062550;28;20056;-61
2023/10/18 20:59:43;;;;;;;31.55;17.55;;;;;;;8.84;100.00;92640.00;5040091;28;20050;-60
2023/10/18 21:02:15;;;;;;;30.85;17.42;;;;;;;8.97;100.00;92640.00;5042506;28;20042;-60
2023/10/18 21:04:47;;;;;;;32.55;18.67;;;;;;;8.98;100.00;92642.31;5041465;28;21645;-61
2023/10/18 21:07:15;;;;;;;32.45;17.52;;;;;;;9.03;100.00;92629.28;5041165;28;20103;-60
2023/10/18 21:09:43;;;;;;;30.80;16.43;;;;;;;8.90;100.00;92632.00;5048692;28;21537;-60
2023/10/18 21:12:11;;;;;;;29.83;17.00;;;;;;;8.93;100.00;92637.38;5040515;28;20049;-60
2023/10/18 21:14:38;;;;;;;31.05;17.30;;;;;;;8.93;100.00;92631.91;5041707;28;20100;-60
2023/10/18 21:17:05;;;;;;;30.23;16.77;;;;;;;8.91;100.00;92630.78;5043470;28;20062;-60
2023/10/18 21:19:32;;;;;;;29.15;18.10;;;;;;;9.00;100.00;92620.75;5043577;28;20057;-61
2023/10/18 21:21:59;;;;;;;28.70;16.97;;;;;;;9.02;100.00;92627.75;5054866;28;20687;-60
2023/10/18 21:24:26;;;;;;;28.45;16.08;;;;;;;9.07;100.00;92624.47;5060510;28;20520;-59
2023/10/18 21:26:53;;;;;;;26.17;15.60;;;;;;;9.18;100.00;92628.41;5056169;28;20057;-60
2023/10/18 21:29:20;;;;;;;27.73;15.70;;;;;;;9.10;100.00;92618.88;5048534;28;20139;-59
2023/10/18 21:31:47;;;;;;;25.95;15.60;;;;;;;9.09;100.00;92616.59;5060177;28;20041;-60
2023/10/18 21:34:14;;;;;;;25.20;14.93;;;;;;;9.10;100.00;92616.16;5060613;28;20404;-59
2023/10/18 21:36:41;;;;;;;25.70;14.32;;;;;;;9.18;100.00;92616.69;5076122;28;20049;-59
2023/10/18 21:39:08;;;;;;;24.95;14.60;;;;;;;9.08;100.00;92617.81;5060943;28;20495;-59
2023/10/18 21:41:37;;;;;;;24.23;13.80;;;;;;;9.07;100.00;92622.47;5059872;28;20052;-60
2023/10/18 21:44:04;;;;;;;24.08;13.10;;;;;;;9.01;100.00;92618.75;5045723;28;20406;-59
2023/10/18 21:46:34;;;;;;;23.83;14.00;;;;;;;8.77;100.00;92634.72;5049367;28;20051;-59
2023/10/18 21:49:01;;;;;;;23.40;13.07;;;;;;;8.69;100.00;92625.97;5040587;28;20433;-60
2023/10/18 21:51:28;;;;;;;24.60;13.45;;;;;;;8.70;100.00;92630.22;5039795;28;20043;-59
2023/10/18 21:53:56;;;;;;;24.77;12.90;;;;;;;8.69;100.00;92628.72;5043318;28;20569;-58
2023/10/18 21:56:23;;;;;;;24.17;13.75;;;;;;;8.67;100.00;92624.84;5043415;28;20037;-58
2023/10/18 21:58:51;;;;;;;25.07;13.47;;;;;;;8.74;100.00;92632.88;5046646;28;20044;-58
2023/10/18 22:01:39;;;;;;;23.98;13.43;;;;;;;8.68;100.00;92632.63;5059365;28;20059;-59
2023/10/18 22:04:07;;;;;;;23.48;12.73;;;;;;;8.81;100.00;92629.91;5060633;28;20041;-59
2023/10/18 22:06:35;;;;;;;23.65;12.88;;;;;;;8.84;100.00;92631.78;5059586;28;20040;-59
2023/10/18 22:11:49;;;;;;;20.40;11.40;;;;;;;8.97;100.00;92624.38;5047470;28;20355;-58
2023/10/18 22:14:19;;;;;;;19.65;11.48;;;;;;;9.00;100.00;92626.22;5041601;28;20449;-58
2023/10/18 22:16:54;;;;;;;20.08;11.73;;;;;;;9.14;100.00;92627.00;5039830;28;20058;-59
2023/10/18 22:19:32;;;;;;;20.88;12.05;;;;;;;9.28;100.00;92625.78;5041834;28;20041;-59
2023/10/18 22:22:10;;;;;;;21.75;12.35;;;;;;;9.29;100.00;92619.84;5048402;28;20053;-58
2023/10/18 22:24:39;;;;;;;21.90;12.50;;;;;;;9.33;100.00;92622.50;5059408;28;20052;-58
2023/10/18 22:27:14;;;;;;;22.15;11.85;;;;;;;9.27;100.00;92614.06;5045599;28;20037;-59
2023/10/18 22:29:49;;;;;;;21.38;12.52;;;;;;;9.16;100.00;92614.41;5046856;28;20378;-58
2023/10/18 22:32:24;;;;;;;22.23;12.00;;;;;;;9.24;100.00;92609.47;5043318;28;20049;-58
2023/10/18 22:34:52;;;;;;;19.63;12.02;;;;;;;9.32;100.00;92612.75;5046721;28;20037;-58
2023/10/18 22:37:22;;;;;;;22.67;12.47;;;;;;;9.33;100.00;92606.81;5047856;28;20045;-57
2023/10/18 22:39:50;;;;;;;19.98;11.70;;;;;;;9.28;100.00;92603.88;5046835;28;20066;-58
2023/10/18 22:42:29;;;;;;;21.83;12.38;;;;;;;9.29;100.00;92602.66;5047771;28;20505;-60
2023/10/18 22:45:09;;;;;;;19.30;11.55;;;;;;;9.40;100.00;92601.13;5051886;28;20044;-58
2023/10/18 22:47:40;;;;;;;20.45;12.07;;;;;;;9.30;100.00;92594.03;5047324;28;20074;-58
2023/10/18 22:53:05;;;;;;;22.98;12.27;;;;;;;9.29;100.00;92608.91;5047061;28;20786;-60
2023/10/18 22:55:32;;;;;;;22.13;12.70;;;;;;;9.05;100.00;92615.94;5036544;28;20497;-58
2023/10/18 22:57:59;;;;;;;26.25;13.88;;;;;;;9.04;100.00;92612.44;5047963;28;20041;-59
2023/10/18 23:00:34;;;;;;;22.60;13.45;;;;;;;9.09;100.00;92602.91;5047450;28;20052;-59
2023/10/18 23:03:07;;;;;;;21.60;12.40;;;;;;;9.03;100.00;92604.66;5047969;28;20041;-60
2023/10/18 23:05:39;;;;;;;21.10;12.23;;;;;;;9.15;100.00;92599.16;5047941;28;20478;-59
2023/10/18 23:08:06;;;;;;;22.05;13.43;;;;;;;9.10;100.00;92605.19;5047937;28;20494;-59
2023/10/18 23:10:49;;;;;;;21.38;12.85;;;;;;;9.20;100.00;92604.09;5047405;28;20045;-58
2023/10/18 23:13:23;;;;;;;44.55;26.27;;;;;;;9.25;100.00;92610.22;5035103;28;20037;-59
2023/10/18 23:15:56;;;;;;;25.70;13.47;;;;;;;9.18;100.00;92603.78;5045901;28;20094;-59
2023/10/18 23:18:35;;;;;;;23.75;13.40;;;;;;;9.27;100.00;92605.09;5051481;28;20063;-58
2023/10/18 23:23:54;;;;;;;23.63;12.80;;;;;;;9.25;100.00;92600.03;5050321;28;21762;-59
2023/10/18 23:29:14;;;;;;;21.43;12.30;;;;;;;9.24;100.00;92604.00;5050309;28;20493;-59
2023/10/18 23:32:29;;;;;;;22.30;13.10;;;;;;;9.30;100.00;92596.00;5049976;28;21393;-59
2023/10/18 23:34:34;;;;;;;48.42;26.77;;;;;;;9.30;100.00;92591.28;5051299;28;20037;-57
2023/10/18 23:39:37;;;;;;;24.20;13.50;;;;;;;9.13;100.00;92593.38;5048844;28;20049;-58
2023/10/18 23:42:14;;;;;;;21.83;13.20;;;;;;;9.07;100.00;92584.16;5050594;28;20484;-60
2023/10/18 23:48:27;;;;;;;21.98;12.80;;;;;;;9.17;100.00;92583.06;5049243;28;20045;-59
2023/10/18 23:55:39;;;;;;;21.67;12.63;;;;;;;9.34;100.00;92581.00;5048760;28;20047;-59
2023/10/18 23:58:13;;;;;;;23.55;13.00;;;;;;;9.40;100.00;92578.47;5050474;28;20033;-59
